sensor_id;sensor_type;location;lat;lon;timestamp;temperature;humidity
3942;DHT22;1985;48.592;8.850;2023-06-19T00:00:45;23.10;66.00
3942;DHT22;1985;48.592;8.850;2023-06-19T00:03:10;23.20;65.50
3942;DHT22;1985;48.592;8.850;2023-06-19T00:05:36;23.20;65.20
3942;DHT22;1985;48.592;8.850;2023-06-19T00:08:02;23.20;65.10
3942;DHT22;1985;48.592;8.850;2023-06-19T00:10:29;23.40;64.80
3942;DHT22;1985;48.592;8.850;2023-06-19T00:12:55;23.40;64.70
3942;DHT22;1985;48.592;8.850;2023-06-19T00:15:21;23.50;65.10
3942;DHT22;1985;48.592;8.850;2023-06-19T00:17:46;23.60;65.80
3942;DHT22;1985;48.592;8.850;2023-06-19T00:20:12;23.70;66.50
3942;DHT22;1985;48.592;8.850;2023-06-19T00:22:39;23.70;67.20
3942;DHT22;1985;48.592;8.850;2023-06-19T00:25:05;23.80;67.60
3942;DHT22;1985;48.592;8.850;2023-06-19T00:27:31;23.80;67.90
3942;DHT22;1985;48.592;8.850;2023-06-19T00:29:56;23.80;68.20
3942;DHT22;1985;48.592;8.850;2023-06-19T00:32:30;23.80;69.00
3942;DHT22;1985;48.592;8.850;2023-06-19T00:34:56;23.70;69.50
3942;DHT22;1985;48.592;8.850;2023-06-19T00:37:22;23.60;70.20
3942;DHT22;1985;48.592;8.850;2023-06-19T00:39:47;23.50;70.40
3942;DHT22;1985;48.592;8.850;2023-06-19T00:42:13;23.50;70.80
3942;DHT22;1985;48.592;8.850;2023-06-19T00:44:39;23.30;70.70
3942;DHT22;1985;48.592;8.850;2023-06-19T00:47:05;23.30;71.50
3942;DHT22;1985;48.592;8.850;2023-06-19T00:49:31;23.20;71.70
3942;DHT22;1985;48.592;8.850;2023-06-19T00:51:57;23.20;71.80
3942;DHT22;1985;48.592;8.850;2023-06-19T00:54:23;23.10;72.20
3942;DHT22;1985;48.592;8.850;2023-06-19T00:56:49;23.00;72.50
3942;DHT22;1985;48.592;8.850;2023-06-19T00:59:17;22.50;72.90
3942;DHT22;1985;48.592;8.850;2023-06-19T01:01:44;22.40;70.70
3942;DHT22;1985;48.592;8.850;2023-06-19T01:04:09;22.50;68.50
3942;DHT22;1985;48.592;8.850;2023-06-19T01:06:56;22.60;68.00
3942;DHT22;1985;48.592;8.850;2023-06-19T01:09:38;22.70;68.10
3942;DHT22;1985;48.592;8.850;2023-06-19T01:12:15;22.60;68.90
3942;DHT22;1985;48.592;8.850;2023-06-19T01:14:59;22.50;70.10
3942;DHT22;1985;48.592;8.850;2023-06-19T01:17:26;22.50;71.00
3942;DHT22;1985;48.592;8.850;2023-06-19T01:19:54;22.40;72.00
3942;DHT22;1985;48.592;8.850;2023-06-19T01:22:30;22.40;72.90
3942;DHT22;1985;48.592;8.850;2023-06-19T01:24:56;22.30;74.30
3942;DHT22;1985;48.592;8.850;2023-06-19T01:27:24;22.40;74.70
3942;DHT22;1985;48.592;8.850;2023-06-19T01:29:51;22.20;75.30
3942;DHT22;1985;48.592;8.850;2023-06-19T01:32:22;22.20;75.60
3942;DHT22;1985;48.592;8.850;2023-06-19T01:34:52;22.30;75.60
3942;DHT22;1985;48.592;8.850;2023-06-19T01:37:20;22.20;75.90
3942;DHT22;1985;48.592;8.850;2023-06-19T01:39:46;22.00;76.60
3942;DHT22;1985;48.592;8.850;2023-06-19T01:42:14;21.90;77.20
3942;DHT22;1985;48.592;8.850;2023-06-19T01:44:40;21.90;77.10
3942;DHT22;1985;48.592;8.850;2023-06-19T01:47:10;22.00;77.40
3942;DHT22;1985;48.592;8.850;2023-06-19T01:49:37;21.90;77.40
3942;DHT22;1985;48.592;8.850;2023-06-19T01:52:03;21.90;77.70
3942;DHT22;1985;48.592;8.850;2023-06-19T01:54:29;21.80;78.20
3942;DHT22;1985;48.592;8.850;2023-06-19T01:56:55;21.80;78.50
3942;DHT22;1985;48.592;8.850;2023-06-19T01:59:21;21.70;78.60
3942;DHT22;1985;48.592;8.850;2023-06-19T02:01:46;21.70;78.80
3942;DHT22;1985;48.592;8.850;2023-06-19T02:04:12;21.70;79.40
3942;DHT22;1985;48.592;8.850;2023-06-19T02:06:38;21.70;79.40
3942;DHT22;1985;48.592;8.850;2023-06-19T02:09:03;21.90;78.70
3942;DHT22;1985;48.592;8.850;2023-06-19T02:11:29;22.00;78.10
3942;DHT22;1985;48.592;8.850;2023-06-19T02:13:54;22.00;78.20
3942;DHT22;1985;48.592;8.850;2023-06-19T02:16:20;22.00;78.40
3942;DHT22;1985;48.592;8.850;2023-06-19T02:18:45;22.20;78.40
3942;DHT22;1985;48.592;8.850;2023-06-19T02:21:11;22.20;78.80
3942;DHT22;1985;48.592;8.850;2023-06-19T02:23:37;22.00;79.20
3942;DHT22;1985;48.592;8.850;2023-06-19T02:26:02;22.00;80.50
3942;DHT22;1985;48.592;8.850;2023-06-19T02:28:28;21.90;82.60
3942;DHT22;1985;48.592;8.850;2023-06-19T02:30:54;22.00;84.20
3942;DHT22;1985;48.592;8.850;2023-06-19T02:33:20;22.00;83.10
3942;DHT22;1985;48.592;8.850;2023-06-19T02:35:45;22.10;83.50
3942;DHT22;1985;48.592;8.850;2023-06-19T02:38:11;22.20;84.30
3942;DHT22;1985;48.592;8.850;2023-06-19T02:40:40;22.30;82.40
3942;DHT22;1985;48.592;8.850;2023-06-19T02:43:05;22.40;84.10
3942;DHT22;1985;48.592;8.850;2023-06-19T02:45:31;22.40;82.20
3942;DHT22;1985;48.592;8.850;2023-06-19T02:47:57;22.30;83.90
3942;DHT22;1985;48.592;8.850;2023-06-19T02:50:22;22.30;84.90
3942;DHT22;1985;48.592;8.850;2023-06-19T02:52:48;22.20;84.20
3942;DHT22;1985;48.592;8.850;2023-06-19T02:55:14;22.20;85.00
3942;DHT22;1985;48.592;8.850;2023-06-19T02:57:39;22.20;86.10
3942;DHT22;1985;48.592;8.850;2023-06-19T03:00:05;22.10;85.20
3942;DHT22;1985;48.592;8.850;2023-06-19T03:02:31;22.00;86.30
3942;DHT22;1985;48.592;8.850;2023-06-19T03:04:57;22.00;86.90
3942;DHT22;1985;48.592;8.850;2023-06-19T03:07:22;22.10;84.70
3942;DHT22;1985;48.592;8.850;2023-06-19T03:09:50;22.10;84.80
3942;DHT22;1985;48.592;8.850;2023-06-19T03:12:16;22.10;88.00
3942;DHT22;1985;48.592;8.850;2023-06-19T03:14:41;22.10;90.00
3942;DHT22;1985;48.592;8.850;2023-06-19T03:17:07;21.90;90.40
3942;DHT22;1985;48.592;8.850;2023-06-19T03:19:32;21.70;91.20
3942;DHT22;1985;48.592;8.850;2023-06-19T03:21:59;21.70;91.80
3942;DHT22;1985;48.592;8.850;2023-06-19T03:24:25;21.70;92.60
3942;DHT22;1985;48.592;8.850;2023-06-19T03:26:51;21.60;91.70
3942;DHT22;1985;48.592;8.850;2023-06-19T03:29:17;21.70;91.80
3942;DHT22;1985;48.592;8.850;2023-06-19T03:31:42;21.70;90.80
3942;DHT22;1985;48.592;8.850;2023-06-19T03:34:08;21.70;88.80
3942;DHT22;1985;48.592;8.850;2023-06-19T03:36:33;21.70;90.00
3942;DHT22;1985;48.592;8.850;2023-06-19T03:38:59;21.80;91.20
3942;DHT22;1985;48.592;8.850;2023-06-19T03:41:25;22.00;90.60
3942;DHT22;1985;48.592;8.850;2023-06-19T03:43:50;22.00;90.80
3942;DHT22;1985;48.592;8.850;2023-06-19T03:46:16;22.00;90.00
3942;DHT22;1985;48.592;8.850;2023-06-19T03:48:41;21.80;90.70
3942;DHT22;1985;48.592;8.850;2023-06-19T03:51:07;21.40;92.90
3942;DHT22;1985;48.592;8.850;2023-06-19T03:53:33;21.00;93.40
3942;DHT22;1985;48.592;8.850;2023-06-19T03:55:58;20.90;94.50
3942;DHT22;1985;48.592;8.850;2023-06-19T03:58:24;20.60;94.90
3942;DHT22;1985;48.592;8.850;2023-06-19T04:00:50;20.50;95.30
3942;DHT22;1985;48.592;8.850;2023-06-19T04:03:16;20.30;96.90
3942;DHT22;1985;48.592;8.850;2023-06-19T04:05:41;20.30;98.40
3942;DHT22;1985;48.592;8.850;2023-06-19T04:08:07;20.40;98.00
3942;DHT22;1985;48.592;8.850;2023-06-19T04:10:33;20.40;98.40
3942;DHT22;1985;48.592;8.850;2023-06-19T04:12:59;20.50;98.50
3942;DHT22;1985;48.592;8.850;2023-06-19T04:15:24;20.70;97.50
3942;DHT22;1985;48.592;8.850;2023-06-19T04:17:50;20.80;96.80
3942;DHT22;1985;48.592;8.850;2023-06-19T04:20:15;20.90;96.40
3942;DHT22;1985;48.592;8.850;2023-06-19T04:22:41;21.10;96.40
3942;DHT22;1985;48.592;8.850;2023-06-19T04:25:08;21.40;95.40
3942;DHT22;1985;48.592;8.850;2023-06-19T04:27:35;21.40;95.20
3942;DHT22;1985;48.592;8.850;2023-06-19T04:30:03;21.60;96.10
3942;DHT22;1985;48.592;8.850;2023-06-19T04:32:29;21.70;95.70
3942;DHT22;1985;48.592;8.850;2023-06-19T04:34:55;21.70;95.70
3942;DHT22;1985;48.592;8.850;2023-06-19T04:37:21;21.70;96.60
3942;DHT22;1985;48.592;8.850;2023-06-19T04:39:47;21.60;96.70
3942;DHT22;1985;48.592;8.850;2023-06-19T04:42:17;21.60;95.90
3942;DHT22;1985;48.592;8.850;2023-06-19T04:44:49;21.40;97.60
3942;DHT22;1985;48.592;8.850;2023-06-19T04:47:17;21.00;99.10
3942;DHT22;1985;48.592;8.850;2023-06-19T04:49:43;20.90;99.90
3942;DHT22;1985;48.592;8.850;2023-06-19T04:52:08;21.00;99.90
3942;DHT22;1985;48.592;8.850;2023-06-19T04:54:34;21.10;99.90
3942;DHT22;1985;48.592;8.850;2023-06-19T04:57:00;21.00;99.90
3942;DHT22;1985;48.592;8.850;2023-06-19T04:59:27;20.90;99.90
3942;DHT22;1985;48.592;8.850;2023-06-19T05:01:52;20.70;99.90
3942;DHT22;1985;48.592;8.850;2023-06-19T05:04:20;20.60;99.90
3942;DHT22;1985;48.592;8.850;2023-06-19T05:06:45;20.40;99.90
3942;DHT22;1985;48.592;8.850;2023-06-19T05:09:11;20.30;99.90
3942;DHT22;1985;48.592;8.850;2023-06-19T05:11:37;20.40;99.90
3942;DHT22;1985;48.592;8.850;2023-06-19T05:14:03;20.60;99.90
3942;DHT22;1985;48.592;8.850;2023-06-19T05:16:28;20.90;99.90
3942;DHT22;1985;48.592;8.850;2023-06-19T05:18:54;21.00;99.90
3942;DHT22;1985;48.592;8.850;2023-06-19T05:21:20;21.10;99.90
3942;DHT22;1985;48.592;8.850;2023-06-19T05:23:45;21.10;99.90
3942;DHT22;1985;48.592;8.850;2023-06-19T05:26:19;21.10;99.90
3942;DHT22;1985;48.592;8.850;2023-06-19T05:28:44;21.20;99.90
3942;DHT22;1985;48.592;8.850;2023-06-19T05:31:10;21.40;99.90
3942;DHT22;1985;48.592;8.850;2023-06-19T05:33:36;21.50;99.90
3942;DHT22;1985;48.592;8.850;2023-06-19T05:36:01;21.70;99.90
3942;DHT22;1985;48.592;8.850;2023-06-19T05:38:27;21.60;99.90
3942;DHT22;1985;48.592;8.850;2023-06-19T05:40:56;21.70;99.90
3942;DHT22;1985;48.592;8.850;2023-06-19T05:43:21;21.80;99.90
3942;DHT22;1985;48.592;8.850;2023-06-19T05:45:48;21.70;99.90
3942;DHT22;1985;48.592;8.850;2023-06-19T05:48:13;21.70;99.90
3942;DHT22;1985;48.592;8.850;2023-06-19T05:50:39;21.80;99.90
3942;DHT22;1985;48.592;8.850;2023-06-19T05:53:05;21.80;99.90
3942;DHT22;1985;48.592;8.850;2023-06-19T05:55:31;21.90;99.90
3942;DHT22;1985;48.592;8.850;2023-06-19T05:57:56;22.00;99.90
3942;DHT22;1985;48.592;8.850;2023-06-19T06:00:22;21.80;99.90
3942;DHT22;1985;48.592;8.850;2023-06-19T06:02:48;21.70;99.90
3942;DHT22;1985;48.592;8.850;2023-06-19T06:05:14;21.40;99.90
3942;DHT22;1985;48.592;8.850;2023-06-19T06:07:39;21.20;99.90
3942;DHT22;1985;48.592;8.850;2023-06-19T06:10:05;21.00;99.90
3942;DHT22;1985;48.592;8.850;2023-06-19T06:12:34;20.90;99.90
3942;DHT22;1985;48.592;8.850;2023-06-19T06:15:01;21.00;99.90
3942;DHT22;1985;48.592;8.850;2023-06-19T06:17:27;21.00;99.90
3942;DHT22;1985;48.592;8.850;2023-06-19T06:19:53;21.10;99.90
3942;DHT22;1985;48.592;8.850;2023-06-19T06:22:18;21.20;99.90
3942;DHT22;1985;48.592;8.850;2023-06-19T06:24:44;21.20;99.90
3942;DHT22;1985;48.592;8.850;2023-06-19T06:27:12;21.20;99.90
3942;DHT22;1985;48.592;8.850;2023-06-19T06:29:37;21.30;99.90
3942;DHT22;1985;48.592;8.850;2023-06-19T06:32:05;21.50;99.90
3942;DHT22;1985;48.592;8.850;2023-06-19T06:34:32;21.70;99.90
3942;DHT22;1985;48.592;8.850;2023-06-19T06:36:58;21.80;99.90
3942;DHT22;1985;48.592;8.850;2023-06-19T06:39:24;21.90;99.90
3942;DHT22;1985;48.592;8.850;2023-06-19T06:41:50;22.00;99.90
3942;DHT22;1985;48.592;8.850;2023-06-19T06:44:15;22.10;99.90
3942;DHT22;1985;48.592;8.850;2023-06-19T06:46:41;22.10;99.90
3942;DHT22;1985;48.592;8.850;2023-06-19T06:49:07;22.10;99.90
3942;DHT22;1985;48.592;8.850;2023-06-19T06:51:33;22.10;99.90
3942;DHT22;1985;48.592;8.850;2023-06-19T06:53:58;22.10;99.90
3942;DHT22;1985;48.592;8.850;2023-06-19T06:56:24;22.10;99.90
3942;DHT22;1985;48.592;8.850;2023-06-19T06:58:50;22.00;99.90
3942;DHT22;1985;48.592;8.850;2023-06-19T07:01:15;21.90;99.90
3942;DHT22;1985;48.592;8.850;2023-06-19T07:03:41;21.80;99.90
3942;DHT22;1985;48.592;8.850;2023-06-19T07:06:07;21.70;99.90
3942;DHT22;1985;48.592;8.850;2023-06-19T07:08:32;21.50;99.90
3942;DHT22;1985;48.592;8.850;2023-06-19T07:10:58;21.70;99.90
3942;DHT22;1985;48.592;8.850;2023-06-19T07:13:25;21.80;99.90
3942;DHT22;1985;48.592;8.850;2023-06-19T07:15:50;22.10;99.90
3942;DHT22;1985;48.592;8.850;2023-06-19T07:18:16;22.00;99.90
3942;DHT22;1985;48.592;8.850;2023-06-19T07:20:42;22.10;99.90
3942;DHT22;1985;48.592;8.850;2023-06-19T07:23:09;22.30;99.90
3942;DHT22;1985;48.592;8.850;2023-06-19T07:25:35;22.50;99.90
3942;DHT22;1985;48.592;8.850;2023-06-19T07:28:01;22.50;99.90
3942;DHT22;1985;48.592;8.850;2023-06-19T07:30:27;22.70;99.90
3942;DHT22;1985;48.592;8.850;2023-06-19T07:32:53;22.90;99.90
3942;DHT22;1985;48.592;8.850;2023-06-19T07:35:18;22.90;99.60
3942;DHT22;1985;48.592;8.850;2023-06-19T07:37:45;22.90;99.10
3942;DHT22;1985;48.592;8.850;2023-06-19T07:40:11;23.00;98.10
3942;DHT22;1985;48.592;8.850;2023-06-19T07:42:37;22.90;98.70
3942;DHT22;1985;48.592;8.850;2023-06-19T07:45:03;23.00;98.80
3942;DHT22;1985;48.592;8.850;2023-06-19T07:47:29;23.20;98.50
3942;DHT22;1985;48.592;8.850;2023-06-19T07:49:55;23.50;98.10
3942;DHT22;1985;48.592;8.850;2023-06-19T07:52:20;23.80;97.90
3942;DHT22;1985;48.592;8.850;2023-06-19T07:54:54;24.00;95.20
3942;DHT22;1985;48.592;8.850;2023-06-19T07:57:21;24.10;95.40
3942;DHT22;1985;48.592;8.850;2023-06-19T07:59:48;24.20;94.70
3942;DHT22;1985;48.592;8.850;2023-06-19T08:02:14;24.30;94.60
3942;DHT22;1985;48.592;8.850;2023-06-19T08:04:40;24.30;95.50
3942;DHT22;1985;48.592;8.850;2023-06-19T08:07:05;24.20;94.60
3942;DHT22;1985;48.592;8.850;2023-06-19T08:09:31;24.00;95.20
3942;DHT22;1985;48.592;8.850;2023-06-19T08:11:57;24.00;94.80
3942;DHT22;1985;48.592;8.850;2023-06-19T08:14:22;24.10;94.80
3942;DHT22;1985;48.592;8.850;2023-06-19T08:16:48;24.10;94.90
3942;DHT22;1985;48.592;8.850;2023-06-19T08:19:14;24.20;94.50
3942;DHT22;1985;48.592;8.850;2023-06-19T08:21:40;24.10;94.80
3942;DHT22;1985;48.592;8.850;2023-06-19T08:24:05;24.40;94.00
3942;DHT22;1985;48.592;8.850;2023-06-19T08:26:31;24.60;93.10
3942;DHT22;1985;48.592;8.850;2023-06-19T08:28:57;24.60;92.50
3942;DHT22;1985;48.592;8.850;2023-06-19T08:31:23;24.60;92.60
3942;DHT22;1985;48.592;8.850;2023-06-19T08:33:56;24.60;91.60
3942;DHT22;1985;48.592;8.850;2023-06-19T08:36:22;24.30;92.40
3942;DHT22;1985;48.592;8.850;2023-06-19T08:38:48;24.10;92.60
3942;DHT22;1985;48.592;8.850;2023-06-19T08:41:16;24.30;93.10
3942;DHT22;1985;48.592;8.850;2023-06-19T08:43:42;24.50;92.40
3942;DHT22;1985;48.592;8.850;2023-06-19T08:46:14;24.40;91.90
3942;DHT22;1985;48.592;8.850;2023-06-19T08:48:40;24.50;92.90
3942;DHT22;1985;48.592;8.850;2023-06-19T08:51:07;24.50;93.20
3942;DHT22;1985;48.592;8.850;2023-06-19T08:53:34;24.90;93.30
3942;DHT22;1985;48.592;8.850;2023-06-19T08:56:01;25.00;92.30
3942;DHT22;1985;48.592;8.850;2023-06-19T08:58:27;25.10;91.50
3942;DHT22;1985;48.592;8.850;2023-06-19T09:00:53;25.40;91.50
3942;DHT22;1985;48.592;8.850;2023-06-19T09:03:22;25.60;90.60
3942;DHT22;1985;48.592;8.850;2023-06-19T09:05:48;25.80;90.40
3942;DHT22;1985;48.592;8.850;2023-06-19T09:08:18;25.60;90.60
3942;DHT22;1985;48.592;8.850;2023-06-19T09:11:01;25.50;90.20
3942;DHT22;1985;48.592;8.850;2023-06-19T09:13:28;25.70;90.40
3942;DHT22;1985;48.592;8.850;2023-06-19T09:16:12;25.70;89.30
3942;DHT22;1985;48.592;8.850;2023-06-19T09:18:48;26.00;88.20
3942;DHT22;1985;48.592;8.850;2023-06-19T09:21:18;25.90;86.10
3942;DHT22;1985;48.592;8.850;2023-06-19T09:23:45;26.10;88.10
3942;DHT22;1985;48.592;8.850;2023-06-19T09:26:14;26.40;85.30
3942;DHT22;1985;48.592;8.850;2023-06-19T09:28:41;26.60;84.90
3942;DHT22;1985;48.592;8.850;2023-06-19T09:31:09;26.80;83.90
3942;DHT22;1985;48.592;8.850;2023-06-19T09:33:36;26.90;81.60
3942;DHT22;1985;48.592;8.850;2023-06-19T09:36:04;26.90;81.50
3942;DHT22;1985;48.592;8.850;2023-06-19T09:38:32;27.10;80.70
3942;DHT22;1985;48.592;8.850;2023-06-19T09:41:01;26.90;76.40
3942;DHT22;1985;48.592;8.850;2023-06-19T09:45:59;26.60;77.60
3942;DHT22;1985;48.592;8.850;2023-06-19T09:48:30;26.70;77.70
3942;DHT22;1985;48.592;8.850;2023-06-19T09:51:27;26.90;79.00
3942;DHT22;1985;48.592;8.850;2023-06-19T09:53:56;27.20;78.60
3942;DHT22;1985;48.592;8.850;2023-06-19T09:56:24;27.50;76.70
3942;DHT22;1985;48.592;8.850;2023-06-19T09:58:54;27.80;76.60
3942;DHT22;1985;48.592;8.850;2023-06-19T10:01:22;28.10;72.10
3942;DHT22;1985;48.592;8.850;2023-06-19T10:03:48;28.00;71.40
3942;DHT22;1985;48.592;8.850;2023-06-19T10:06:16;28.20;73.10
3942;DHT22;1985;48.592;8.850;2023-06-19T10:08:43;28.40;71.50
3942;DHT22;1985;48.592;8.850;2023-06-19T10:11:10;28.50;72.50
3942;DHT22;1985;48.592;8.850;2023-06-19T10:13:37;28.50;70.00
3942;DHT22;1985;48.592;8.850;2023-06-19T10:16:05;28.90;69.00
3942;DHT22;1985;48.592;8.850;2023-06-19T10:18:32;29.40;67.70
3942;DHT22;1985;48.592;8.850;2023-06-19T10:20:58;29.70;64.60
3942;DHT22;1985;48.592;8.850;2023-06-19T10:23:25;29.50;63.40
3942;DHT22;1985;48.592;8.850;2023-06-19T10:25:56;29.10;64.70
3942;DHT22;1985;48.592;8.850;2023-06-19T10:28:30;29.70;66.20
3942;DHT22;1985;48.592;8.850;2023-06-19T10:31:05;30.00;63.80
3942;DHT22;1985;48.592;8.850;2023-06-19T10:33:33;29.90;62.90
3942;DHT22;1985;48.592;8.850;2023-06-19T10:36:01;29.70;64.40
3942;DHT22;1985;48.592;8.850;2023-06-19T10:38:27;30.00;62.60
3942;DHT22;1985;48.592;8.850;2023-06-19T10:40:53;30.10;60.00
3942;DHT22;1985;48.592;8.850;2023-06-19T10:43:20;30.10;57.10
3942;DHT22;1985;48.592;8.850;2023-06-19T10:45:47;30.10;55.80
3942;DHT22;1985;48.592;8.850;2023-06-19T10:48:19;29.80;55.60
3942;DHT22;1985;48.592;8.850;2023-06-19T10:50:45;30.00;56.20
3942;DHT22;1985;48.592;8.850;2023-06-19T10:53:10;30.30;54.80
3942;DHT22;1985;48.592;8.850;2023-06-19T10:55:36;30.80;55.70
3942;DHT22;1985;48.592;8.850;2023-06-19T10:58:02;31.10;55.00
3942;DHT22;1985;48.592;8.850;2023-06-19T11:00:32;31.50;53.30
3942;DHT22;1985;48.592;8.850;2023-06-19T11:02:58;31.40;53.20
3942;DHT22;1985;48.592;8.850;2023-06-19T11:05:26;30.60;54.00
3942;DHT22;1985;48.592;8.850;2023-06-19T11:10:27;29.30;57.70
3942;DHT22;1985;48.592;8.850;2023-06-19T11:12:58;29.60;57.40
3942;DHT22;1985;48.592;8.850;2023-06-19T11:15:34;29.50;56.10
3942;DHT22;1985;48.592;8.850;2023-06-19T11:18:02;29.10;57.00
3942;DHT22;1985;48.592;8.850;2023-06-19T11:20:28;29.00;56.90
3942;DHT22;1985;48.592;8.850;2023-06-19T11:23:01;29.00;58.10
3942;DHT22;1985;48.592;8.850;2023-06-19T11:25:37;29.20;57.70
3942;DHT22;1985;48.592;8.850;2023-06-19T11:28:04;29.60;57.30
3942;DHT22;1985;48.592;8.850;2023-06-19T11:30:32;30.00;56.40
3942;DHT22;1985;48.592;8.850;2023-06-19T11:32:58;30.30;55.80
3942;DHT22;1985;48.592;8.850;2023-06-19T11:35:23;30.30;55.30
3942;DHT22;1985;48.592;8.850;2023-06-19T11:37:49;30.60;54.50
3942;DHT22;1985;48.592;8.850;2023-06-19T11:40:14;30.80;55.50
3942;DHT22;1985;48.592;8.850;2023-06-19T11:42:51;30.60;54.10
3942;DHT22;1985;48.592;8.850;2023-06-19T11:45:17;30.50;55.20
3942;DHT22;1985;48.592;8.850;2023-06-19T11:47:44;30.70;55.10
3942;DHT22;1985;48.592;8.850;2023-06-19T11:50:10;30.60;54.80
3942;DHT22;1985;48.592;8.850;2023-06-19T11:52:36;30.90;54.90
3942;DHT22;1985;48.592;8.850;2023-06-19T11:55:02;31.50;55.00
3942;DHT22;1985;48.592;8.850;2023-06-19T11:57:27;32.10;54.60
3942;DHT22;1985;48.592;8.850;2023-06-19T11:59:53;32.70;54.60
3942;DHT22;1985;48.592;8.850;2023-06-19T12:02:19;32.90;53.80
3942;DHT22;1985;48.592;8.850;2023-06-19T12:04:44;32.90;54.20
3942;DHT22;1985;48.592;8.850;2023-06-19T12:07:10;32.90;54.10
3942;DHT22;1985;48.592;8.850;2023-06-19T12:09:37;32.90;53.50
3942;DHT22;1985;48.592;8.850;2023-06-19T12:12:05;32.60;53.70
3942;DHT22;1985;48.592;8.850;2023-06-19T12:14:30;32.10;54.10
3942;DHT22;1985;48.592;8.850;2023-06-19T12:16:56;31.70;55.20
3942;DHT22;1985;48.592;8.850;2023-06-19T12:19:22;31.10;52.60
3942;DHT22;1985;48.592;8.850;2023-06-19T12:21:47;30.80;53.30
3942;DHT22;1985;48.592;8.850;2023-06-19T12:24:13;30.70;53.60
3942;DHT22;1985;48.592;8.850;2023-06-19T12:26:39;30.40;53.70
3942;DHT22;1985;48.592;8.850;2023-06-19T12:29:06;29.90;54.70
3942;DHT22;1985;48.592;8.850;2023-06-19T12:31:32;29.80;55.20
3942;DHT22;1985;48.592;8.850;2023-06-19T12:33:58;29.80;54.60
3942;DHT22;1985;48.592;8.850;2023-06-19T12:36:24;29.70;55.80
3942;DHT22;1985;48.592;8.850;2023-06-19T12:38:52;29.70;56.70
3942;DHT22;1985;48.592;8.850;2023-06-19T12:41:22;30.00;57.20
3942;DHT22;1985;48.592;8.850;2023-06-19T12:43:48;30.10;56.90
3942;DHT22;1985;48.592;8.850;2023-06-19T12:46:13;30.10;56.60
3942;DHT22;1985;48.592;8.850;2023-06-19T12:48:40;30.20;55.60
3942;DHT22;1985;48.592;8.850;2023-06-19T12:51:06;30.20;56.50
3942;DHT22;1985;48.592;8.850;2023-06-19T12:53:32;30.30;55.80
3942;DHT22;1985;48.592;8.850;2023-06-19T12:55:58;30.20;55.50
3942;DHT22;1985;48.592;8.850;2023-06-19T12:58:24;30.20;57.20
3942;DHT22;1985;48.592;8.850;2023-06-19T13:00:49;30.20;57.80
3942;DHT22;1985;48.592;8.850;2023-06-19T13:03:15;30.30;58.10
3942;DHT22;1985;48.592;8.850;2023-06-19T13:05:41;30.30;58.30
3942;DHT22;1985;48.592;8.850;2023-06-19T13:08:07;30.40;57.60
3942;DHT22;1985;48.592;8.850;2023-06-19T13:10:32;30.40;58.00
3942;DHT22;1985;48.592;8.850;2023-06-19T13:12:58;30.50;57.60
3942;DHT22;1985;48.592;8.850;2023-06-19T13:15:24;30.60;57.80
3942;DHT22;1985;48.592;8.850;2023-06-19T13:17:50;30.50;57.90
3942;DHT22;1985;48.592;8.850;2023-06-19T13:20:16;30.40;57.00
3942;DHT22;1985;48.592;8.850;2023-06-19T13:22:42;30.40;54.40
3942;DHT22;1985;48.592;8.850;2023-06-19T13:25:09;30.40;55.50
3942;DHT22;1985;48.592;8.850;2023-06-19T13:27:35;30.40;55.10
3942;DHT22;1985;48.592;8.850;2023-06-19T13:30:02;29.90;54.50
3942;DHT22;1985;48.592;8.850;2023-06-19T13:32:28;29.70;55.00
3942;DHT22;1985;48.592;8.850;2023-06-19T13:34:53;29.60;54.40
3942;DHT22;1985;48.592;8.850;2023-06-19T13:37:19;29.70;54.50
3942;DHT22;1985;48.592;8.850;2023-06-19T13:39:46;29.60;55.80
3942;DHT22;1985;48.592;8.850;2023-06-19T13:42:12;29.80;54.70
3942;DHT22;1985;48.592;8.850;2023-06-19T13:44:38;30.10;55.40
3942;DHT22;1985;48.592;8.850;2023-06-19T13:47:04;30.20;55.60
3942;DHT22;1985;48.592;8.850;2023-06-19T13:49:30;30.50;54.00
3942;DHT22;1985;48.592;8.850;2023-06-19T13:51:56;30.50;53.40
3942;DHT22;1985;48.592;8.850;2023-06-19T13:54:21;30.60;53.60
3942;DHT22;1985;48.592;8.850;2023-06-19T13:56:48;30.70;54.70
3942;DHT22;1985;48.592;8.850;2023-06-19T13:59:14;30.80;53.80
3942;DHT22;1985;48.592;8.850;2023-06-19T14:01:40;30.80;54.30
3942;DHT22;1985;48.592;8.850;2023-06-19T14:04:07;30.70;53.20
3942;DHT22;1985;48.592;8.850;2023-06-19T14:06:34;30.70;52.00
3942;DHT22;1985;48.592;8.850;2023-06-19T14:09:00;30.70;52.10
3942;DHT22;1985;48.592;8.850;2023-06-19T14:11:25;30.70;53.20
3942;DHT22;1985;48.592;8.850;2023-06-19T14:13:51;30.50;52.30
3942;DHT22;1985;48.592;8.850;2023-06-19T14:16:16;30.40;52.50
3942;DHT22;1985;48.592;8.850;2023-06-19T14:18:42;30.10;53.20
3942;DHT22;1985;48.592;8.850;2023-06-19T14:21:08;29.80;53.20
3942;DHT22;1985;48.592;8.850;2023-06-19T14:23:33;29.80;53.50
3942;DHT22;1985;48.592;8.850;2023-06-19T14:26:04;29.80;53.10
3942;DHT22;1985;48.592;8.850;2023-06-19T14:28:29;29.80;52.80
3942;DHT22;1985;48.592;8.850;2023-06-19T14:30:55;30.10;53.10
3942;DHT22;1985;48.592;8.850;2023-06-19T14:33:21;30.30;52.70
3942;DHT22;1985;48.592;8.850;2023-06-19T14:35:47;30.20;50.50
3942;DHT22;1985;48.592;8.850;2023-06-19T14:38:13;29.80;51.60
3942;DHT22;1985;48.592;8.850;2023-06-19T14:40:39;29.50;50.80
3942;DHT22;1985;48.592;8.850;2023-06-19T14:43:05;29.60;51.00
3942;DHT22;1985;48.592;8.850;2023-06-19T14:45:30;29.70;51.60
3942;DHT22;1985;48.592;8.850;2023-06-19T14:47:56;29.90;50.70
3942;DHT22;1985;48.592;8.850;2023-06-19T14:50:22;29.90;52.50
3942;DHT22;1985;48.592;8.850;2023-06-19T14:52:48;30.10;50.80
3942;DHT22;1985;48.592;8.850;2023-06-19T14:55:14;30.10;50.60
3942;DHT22;1985;48.592;8.850;2023-06-19T14:57:39;30.00;50.90
3942;DHT22;1985;48.592;8.850;2023-06-19T15:00:05;30.10;50.60
3942;DHT22;1985;48.592;8.850;2023-06-19T15:02:31;30.10;51.30
3942;DHT22;1985;48.592;8.850;2023-06-19T15:04:57;30.10;50.30
3942;DHT22;1985;48.592;8.850;2023-06-19T15:07:23;30.20;51.00
3942;DHT22;1985;48.592;8.850;2023-06-19T15:09:49;30.20;50.90
3942;DHT22;1985;48.592;8.850;2023-06-19T15:12:14;30.10;50.50
3942;DHT22;1985;48.592;8.850;2023-06-19T15:14:40;30.00;50.40
3942;DHT22;1985;48.592;8.850;2023-06-19T15:17:06;30.10;50.50
3942;DHT22;1985;48.592;8.850;2023-06-19T15:19:32;30.00;50.30
3942;DHT22;1985;48.592;8.850;2023-06-19T15:21:58;29.80;52.10
3942;DHT22;1985;48.592;8.850;2023-06-19T15:24:24;30.00;51.60
3942;DHT22;1985;48.592;8.850;2023-06-19T15:26:49;30.10;52.70
3942;DHT22;1985;48.592;8.850;2023-06-19T15:29:15;30.40;52.00
3942;DHT22;1985;48.592;8.850;2023-06-19T15:31:41;30.40;50.20
3942;DHT22;1985;48.592;8.850;2023-06-19T15:34:06;30.50;50.00
3942;DHT22;1985;48.592;8.850;2023-06-19T15:36:32;30.50;50.60
3942;DHT22;1985;48.592;8.850;2023-06-19T15:38:57;30.30;50.60
3942;DHT22;1985;48.592;8.850;2023-06-19T15:41:23;30.40;50.70
3942;DHT22;1985;48.592;8.850;2023-06-19T15:43:49;30.40;50.30
3942;DHT22;1985;48.592;8.850;2023-06-19T15:46:15;30.50;50.30
3942;DHT22;1985;48.592;8.850;2023-06-19T15:48:41;30.60;49.50
3942;DHT22;1985;48.592;8.850;2023-06-19T15:51:07;30.50;52.60
3942;DHT22;1985;48.592;8.850;2023-06-19T15:53:33;30.30;56.80
3942;DHT22;1985;48.592;8.850;2023-06-19T15:55:58;30.40;57.30
3942;DHT22;1985;48.592;8.850;2023-06-19T15:58:24;30.50;56.60
3942;DHT22;1985;48.592;8.850;2023-06-19T16:00:50;30.50;57.80
3942;DHT22;1985;48.592;8.850;2023-06-19T16:03:19;30.50;59.00